createdAt,value
2019-05-17T00:05:37.590Z,99954.02
2019-05-17T00:15:41.686Z,99939.69
2019-05-17T00:25:47.010Z,99936.45
2019-05-17T00:35:50.726Z,99927.77
2019-05-17T00:45:54.321Z,99922.18
2019-05-17T00:55:57.897Z,99917.47
2019-05-17T01:06:01.471Z,99917.67
2019-05-17T01:16:07.316Z,99908.43
2019-05-17T01:26:10.528Z,99901.43
2019-05-17T01:36:14.089Z,99898.48
2019-05-17T01:46:17.645Z,99905.71
2019-05-17T01:56:21.246Z,99910.13
2019-05-17T02:06:26.984Z,99898.95
2019-05-17T02:16:30.143Z,99892.83
2019-05-17T02:26:33.736Z,99902.15
2019-05-17T02:36:37.336Z,99905.73
2019-05-17T02:46:43.319Z,99893.20
2019-05-17T02:56:46.239Z,99891.09
2019-05-17T03:06:52.982Z,99886.41
2019-05-17T03:16:55.125Z,99891.92
2019-05-17T03:26:58.776Z,99890.64
2019-05-17T03:37:06.527Z,99882.14
2019-05-17T03:47:07.719Z,99867.17
2019-05-17T03:57:13.421Z,99857.81
2019-05-17T04:07:16.599Z,99857.81
2019-05-17T04:17:22.714Z,99863.44
2019-05-17T04:27:25.660Z,99876.04
2019-05-17T04:37:29.255Z,99882.43
2019-05-17T04:47:33.333Z,99885.33
2019-05-17T04:57:37.205Z,99887.27
2019-05-17T05:07:43.210Z,99872.52
2019-05-17T05:17:46.099Z,99879.60
2019-05-17T05:27:51.631Z,99882.86
2019-05-17T05:37:54.999Z,99879.02
2019-05-17T05:47:58.633Z,99875.70
2019-05-17T05:58:02.961Z,99859.86
2019-05-17T06:08:06.810Z,99842.46
2019-05-17T06:18:12.177Z,99869.38
2019-05-17T06:28:15.684Z,99888.08
2019-05-17T06:38:19.523Z,99893.86
2019-05-17T06:48:23.603Z,99882.20
2019-05-17T06:58:27.276Z,99874.92
2019-05-17T07:08:30.866Z,99877.05
2019-05-17T07:18:34.489Z,99877.06
2019-05-17T07:28:40.255Z,99881.36
2019-05-17T07:38:43.413Z,99880.42
2019-05-17T07:48:49.618Z,99879.53
2019-05-17T07:58:52.503Z,99865.06
2019-05-17T08:08:56.096Z,99869.13
2019-05-17T08:19:00.309Z,99871.37
2019-05-17T08:29:04.693Z,99855.89
2019-05-17T08:39:10.248Z,99854.10
2019-05-17T08:49:13.644Z,99859.25
2019-05-17T08:59:17.259Z,99855.61
2019-05-17T09:09:20.845Z,99847.27
2019-05-17T09:19:24.443Z,99841.44
2019-05-17T09:29:29.685Z,99836.97
2019-05-17T09:39:35.268Z,99832.95
2019-05-17T09:49:39.491Z,99820.48
2019-05-17T09:59:43.472Z,99825.03
2019-05-17T10:09:47.180Z,99811.59
2019-05-17T10:19:50.785Z,99808.27
2019-05-17T10:29:54.357Z,99810.45
2019-05-17T10:39:57.948Z,99810.24
2019-05-17T10:50:01.538Z,99810.06
2019-05-17T11:00:06.691Z,99803.59
2019-05-17T11:10:11.519Z,99793.36
2019-05-17T11:20:15.627Z,99794.73
2019-05-17T11:30:19.202Z,99796.88
2019-05-17T11:40:22.805Z,99795.59
2019-05-17T11:50:26.364Z,99800.02
2019-05-17T12:00:30.019Z,99800.93
2019-05-17T12:10:33.720Z,99815.95
2019-05-17T12:20:38.215Z,99813.39
2019-05-17T12:30:41.880Z,99805.59
2019-05-17T12:40:45.535Z,99800.41
2019-05-17T12:50:49.111Z,99787.80
2019-05-17T13:00:52.690Z,99781.30
2019-05-17T13:10:57.784Z,99776.09
2019-05-17T13:21:02.032Z,99764.93
2019-05-17T13:31:06.172Z,99761.45
2019-05-17T13:41:09.704Z,99751.42
2019-05-17T13:51:13.247Z,99739.92
2019-05-17T14:01:16.825Z,99747.50
2019-05-17T14:11:20.596Z,99738.40
2019-05-17T14:21:24.198Z,99731.67
2019-05-17T14:31:27.796Z,99729.48
2019-05-17T14:41:31.360Z,99730.65
2019-05-17T14:51:34.901Z,99716.43
2019-05-17T15:01:38.441Z,99720.50
2019-05-17T15:11:42.038Z,99721.38
2019-05-17T15:21:45.639Z,99711.84
2019-05-17T15:31:51.975Z,99704.73
2019-05-17T15:41:54.656Z,99692.25
2019-05-17T15:51:58.223Z,99689.11
2019-05-17T16:02:01.883Z,99687.59
2019-05-17T16:12:05.450Z,99679.20
2019-05-17T16:22:09.019Z,99674.20
2019-05-17T16:32:12.842Z,99679.25
2019-05-17T16:42:16.524Z,99681.98
2019-05-17T16:52:20.091Z,99670.16
2019-05-17T17:02:23.631Z,99666.78
2019-05-17T17:12:27.260Z,99678.88
2019-05-17T17:22:31.094Z,99681.25
2019-05-17T17:32:34.955Z,99680.44
2019-05-17T17:42:38.762Z,99682.81
2019-05-17T17:52:42.655Z,99686.81
2019-05-17T18:02:46.238Z,99683.25
2019-05-17T18:12:49.849Z,99689.58
2019-05-17T18:22:53.490Z,99683.34
2019-05-17T18:32:57.093Z,99679.98
2019-05-17T18:43:00.675Z,99682.91
2019-05-17T18:53:06.337Z,99697.58
2019-05-17T19:03:10.886Z,99699.55
2019-05-17T19:13:14.453Z,99713.38
2019-05-17T19:23:18.019Z,99731.35
2019-05-17T19:33:21.848Z,99726.00
2019-05-17T19:43:25.405Z,99711.75
2019-05-17T19:53:29.366Z,99713.58
2019-05-17T20:03:32.928Z,99720.31
2019-05-17T20:13:36.530Z,99719.03
2019-05-17T20:23:43.538Z,99705.41
2019-05-17T20:33:45.700Z,99712.11
2019-05-17T20:43:49.238Z,99712.06
2019-05-17T20:53:52.999Z,99718.10
2019-05-17T21:03:56.551Z,99729.08
2019-05-17T21:14:00.843Z,99727.52
2019-05-17T21:24:05.148Z,99736.16
2019-05-17T21:34:08.977Z,99739.56
2019-05-17T21:44:12.573Z,99735.47
2019-05-17T21:54:16.331Z,99728.44
2019-05-17T22:04:19.937Z,99723.88
2019-05-17T22:14:23.587Z,99718.25
2019-05-17T22:24:27.265Z,99719.06
2019-05-17T22:34:30.874Z,99708.86
2019-05-17T22:44:34.544Z,99698.06
2019-05-17T22:54:38.198Z,99702.96
2019-05-17T23:04:41.793Z,99696.70
2019-05-17T23:14:45.330Z,99694.84
2019-05-17T23:24:48.905Z,99698.36
2019-05-17T23:34:52.495Z,99705.79
2019-05-17T23:44:56.062Z,99701.61
2019-05-17T23:54:59.627Z,99693.53
